createdAt,value
2019-04-30T00:00:38.351Z,20.30
2019-04-30T00:03:20.459Z,20.50
2019-04-30T00:06:00.798Z,20.70
2019-04-30T00:08:39.918Z,21.00
2019-04-30T00:13:58.702Z,20.40
2019-04-30T00:16:40.345Z,21.00
2019-04-30T00:19:19.717Z,21.50
2019-04-30T00:22:00.431Z,21.10
2019-04-30T00:24:46.884Z,21.20
2019-04-30T00:27:20.985Z,21.40
2019-04-30T00:30:00.375Z,21.40
2019-04-30T00:40:30.136Z,21.00
2019-04-30T00:43:08.968Z,21.00
2019-04-30T00:45:47.362Z,21.60
2019-04-30T00:48:27.921Z,22.40
2019-04-30T00:51:07.536Z,21.70
2019-04-30T00:53:43.933Z,22.00
2019-04-30T00:56:28.144Z,21.90
2019-04-30T00:59:25.019Z,21.90
2019-04-30T01:02:27.848Z,22.10
2019-04-30T01:05:06.186Z,22.10
2019-04-30T01:07:48.684Z,22.20
2019-04-30T01:10:27.133Z,22.30
2019-04-30T01:13:08.188Z,22.10
2019-04-30T01:15:44.088Z,22.60
2019-04-30T01:18:23.564Z,22.70
2019-04-30T01:21:09.767Z,22.90
2019-04-30T01:23:51.715Z,22.90
2019-04-30T01:26:27.741Z,22.80
2019-04-30T01:36:52.196Z,23.40
2019-04-30T01:39:31.584Z,23.30
2019-04-30T01:42:11.313Z,22.80
2019-04-30T01:44:53.898Z,22.70
2019-04-30T01:47:33.131Z,22.60
2019-04-30T01:50:11.048Z,22.80
2019-04-30T01:52:56.137Z,23.00
2019-04-30T01:55:49.501Z,23.20
2019-04-30T01:58:46.582Z,23.20
2019-04-30T02:01:25.820Z,23.30
2019-04-30T02:04:08.514Z,23.30
2019-04-30T02:06:49.296Z,23.40
2019-04-30T02:09:30.912Z,23.70
2019-04-30T02:12:09.394Z,23.60
2019-04-30T02:14:51.891Z,23.60
2019-04-30T02:17:30.533Z,23.50
2019-04-30T02:20:10.407Z,23.60
2019-04-30T02:22:48.622Z,23.70
2019-04-30T02:25:26.595Z,23.80
2019-04-30T02:28:05.920Z,24.00
2019-04-30T02:30:44.804Z,24.10
2019-04-30T02:33:24.124Z,24.10
2019-04-30T02:36:13.271Z,24.20
2019-04-30T02:38:55.141Z,24.30
2019-04-30T02:41:35.257Z,24.70
2019-04-30T02:46:52.495Z,24.70
2019-04-30T02:49:30.760Z,25.30
2019-04-30T02:52:10.906Z,25.00
2019-04-30T02:54:50.295Z,25.10
2019-04-30T02:57:29.824Z,24.90
2019-04-30T03:03:00.576Z,25.10
2019-04-30T03:05:39.219Z,25.10
2019-04-30T03:08:19.706Z,25.30
2019-04-30T03:10:55.467Z,25.50
2019-04-30T03:13:32.968Z,25.20
2019-04-30T06:43:55.229Z,23.20
2019-04-30T06:49:10.627Z,23.20
2019-04-30T06:54:28.640Z,23.00
2019-04-30T06:57:05.553Z,22.20
2019-04-30T06:59:43.189Z,22.60
2019-04-30T07:02:20.749Z,22.30
2019-04-30T07:07:38.736Z,22.70
2019-04-30T07:10:23.652Z,22.40
2019-04-30T07:15:58.464Z,22.20
2019-04-30T07:18:38.338Z,22.30
2019-04-30T07:21:19.538Z,22.50
2019-04-30T07:23:59.706Z,22.80
2019-04-30T07:26:38.802Z,22.30
2019-04-30T07:31:52.667Z,22.20
2019-04-30T07:34:36.594Z,22.10
2019-04-30T07:42:23.681Z,22.20
2019-04-30T07:45:01.910Z,22.20
2019-04-30T07:47:40.990Z,21.60
2019-04-30T07:50:21.255Z,22.20
2019-04-30T07:53:04.589Z,22.10
2019-04-30T07:58:12.480Z,21.80
2019-04-30T08:00:53.322Z,22.00
2019-04-30T08:09:00.387Z,22.10
2019-04-30T08:11:41.876Z,22.10
2019-04-30T08:14:15.456Z,21.80
2019-04-30T08:16:54.836Z,22.20
2019-04-30T08:19:34.262Z,22.00
2019-04-30T08:24:49.182Z,22.00
2019-04-30T08:27:29.544Z,22.60
2019-04-30T08:30:21.053Z,22.10
2019-04-30T08:32:49.903Z,22.20
2019-04-30T08:40:40.522Z,21.90
2019-04-30T08:43:19.909Z,22.00
2019-04-30T08:45:59.363Z,22.00
2019-04-30T08:48:46.117Z,22.00
2019-04-30T08:51:15.033Z,22.20
2019-04-30T08:53:52.599Z,22.30
2019-04-30T08:56:33.858Z,21.90
2019-04-30T08:59:11.425Z,22.10
2019-04-30T09:01:49.037Z,22.00
2019-04-30T09:04:30.589Z,21.90
2019-04-30T09:07:10.052Z,22.00
2019-04-30T09:09:48.702Z,21.90
2019-04-30T09:12:26.804Z,21.90
2019-04-30T09:15:05.376Z,22.00
2019-04-30T09:17:58.113Z,22.00
2019-04-30T09:20:23.423Z,22.00
2019-04-30T09:23:01.312Z,21.90
2019-04-30T09:25:39.657Z,22.00
2019-04-30T09:28:20.016Z,22.00
2019-04-30T09:30:59.024Z,22.00
2019-04-30T09:33:39.377Z,22.30
2019-04-30T09:36:21.145Z,21.90
2019-04-30T09:39:01.141Z,21.90
2019-04-30T09:41:41.022Z,21.90
2019-04-30T09:44:19.367Z,21.90
2019-04-30T09:46:56.530Z,21.90
2019-04-30T09:49:34.183Z,21.80
2019-04-30T09:52:12.101Z,21.80
2019-04-30T09:54:53.714Z,21.80
2019-04-30T09:57:32.812Z,21.40
2019-04-30T10:00:12.385Z,21.80
2019-04-30T10:02:51.193Z,21.80
2019-04-30T10:05:31.493Z,21.80
2019-04-30T10:08:09.384Z,21.90
2019-04-30T10:10:58.796Z,21.90
2019-04-30T10:13:36.488Z,21.80
2019-04-30T10:16:29.872Z,21.80
2019-04-30T10:19:08.430Z,21.90
2019-04-30T10:21:48.956Z,22.00
2019-04-30T10:24:35.856Z,21.80
2019-04-30T10:27:13.614Z,21.70
2019-04-30T10:29:52.237Z,21.70
2019-04-30T10:32:30.184Z,21.80
2019-04-30T10:35:07.691Z,21.70
2019-04-30T10:37:49.494Z,21.70
2019-04-30T10:40:28.675Z,21.70
2019-04-30T10:43:08.953Z,21.60
2019-04-30T10:45:53.224Z,21.70
2019-04-30T10:48:43.425Z,21.70
2019-04-30T10:51:24.142Z,21.70
2019-04-30T10:54:08.855Z,21.60
2019-04-30T10:56:51.106Z,21.60
2019-04-30T10:59:31.623Z,21.60
2019-04-30T11:02:10.355Z,21.50
2019-04-30T11:04:50.409Z,21.50
2019-04-30T11:07:29.176Z,21.50
2019-04-30T11:10:08.658Z,22.00
2019-04-30T11:12:48.827Z,21.70
2019-04-30T11:15:29.204Z,21.20
2019-04-30T11:18:07.321Z,21.20
2019-04-30T11:20:45.155Z,21.60
2019-04-30T11:23:24.681Z,21.60
2019-04-30T11:26:02.979Z,21.50
2019-04-30T11:28:44.901Z,21.50
2019-04-30T11:31:57.255Z,21.40
2019-04-30T11:34:35.036Z,21.30
2019-04-30T11:37:14.200Z,21.30
2019-04-30T11:39:53.007Z,21.10
2019-04-30T11:45:10.075Z,21.40
2019-04-30T11:47:53.650Z,21.40
2019-04-30T11:50:30.154Z,21.20
2019-04-30T11:53:24.113Z,21.50
2019-04-30T11:55:51.124Z,21.20
2019-04-30T11:58:30.579Z,21.80
2019-04-30T12:01:09.382Z,21.00
2019-04-30T12:03:49.752Z,21.40
2019-04-30T12:06:28.420Z,21.40
2019-04-30T12:09:23.697Z,21.30
2019-04-30T12:12:04.025Z,21.10
2019-04-30T12:14:44.128Z,21.50
2019-04-30T12:17:21.799Z,21.10
2019-04-30T12:20:08.817Z,21.40
2019-04-30T12:22:49.364Z,21.30
2019-04-30T12:25:30.319Z,21.20
2019-04-30T12:28:09.527Z,21.10
2019-04-30T12:33:23.146Z,21.10
2019-04-30T12:36:02.575Z,21.20
2019-04-30T12:41:16.622Z,21.20
2019-04-30T12:46:30.187Z,21.10
2019-04-30T12:49:18.881Z,21.10
2019-04-30T12:52:19.612Z,21.10
2019-04-30T12:55:00.739Z,21.10
2019-04-30T12:57:58.577Z,21.00
2019-04-30T13:00:26.946Z,21.10
2019-04-30T13:03:06.558Z,21.00
2019-04-30T13:05:46.073Z,21.20
2019-04-30T13:08:27.383Z,21.00
2019-04-30T13:11:05.266Z,21.10
2019-04-30T13:13:43.230Z,21.00
2019-04-30T13:16:21.119Z,20.90
2019-04-30T13:18:59.370Z,20.90
2019-04-30T13:21:36.971Z,21.00
2019-04-30T13:24:14.457Z,20.60
2019-04-30T13:26:51.916Z,21.20
2019-04-30T13:32:11.249Z,20.90
2019-04-30T13:34:55.854Z,21.10
2019-04-30T13:37:49.744Z,20.60
2019-04-30T13:40:35.417Z,20.90
2019-04-30T13:43:13.465Z,21.00
2019-04-30T13:45:51.847Z,21.00
2019-04-30T13:48:29.384Z,21.00
2019-04-30T13:51:06.955Z,21.00
2019-04-30T13:53:45.620Z,20.90
2019-04-30T13:56:22.999Z,20.90
2019-04-30T13:59:02.404Z,20.90
2019-04-30T14:01:42.175Z,20.90
2019-04-30T14:04:41.848Z,20.90
2019-04-30T14:07:39.998Z,20.90
2019-04-30T14:10:15.585Z,21.00
2019-04-30T14:13:02.000Z,20.90
2019-04-30T14:15:39.521Z,20.90
2019-04-30T14:18:28.429Z,20.90
2019-04-30T14:21:00.967Z,20.90
2019-04-30T14:23:39.585Z,20.90
2019-04-30T14:26:16.793Z,20.90
2019-04-30T14:28:54.334Z,20.80
2019-04-30T14:31:31.757Z,20.70
2019-04-30T14:34:10.072Z,20.70
2019-04-30T14:36:49.158Z,20.70
2019-04-30T14:39:30.004Z,20.70
2019-04-30T14:42:10.297Z,21.10
2019-04-30T14:44:50.024Z,20.60
2019-04-30T14:47:50.650Z,20.60
2019-04-30T14:50:28.608Z,20.70
2019-04-30T14:53:20.544Z,20.70
2019-04-30T14:56:19.744Z,20.60
2019-04-30T14:59:12.704Z,20.60
2019-04-30T15:02:08.918Z,20.70
2019-04-30T15:04:48.720Z,20.60
2019-04-30T15:07:29.589Z,20.50
2019-04-30T15:10:08.858Z,20.60
2019-04-30T15:12:46.486Z,20.50
2019-04-30T15:15:25.972Z,20.60
2019-04-30T15:18:03.380Z,20.60
2019-04-30T15:20:40.783Z,20.60
2019-04-30T15:23:35.705Z,20.60
2019-04-30T15:26:22.310Z,20.60
2019-04-30T15:28:57.213Z,20.50
2019-04-30T15:31:34.907Z,20.50
2019-04-30T15:34:16.489Z,20.50
2019-04-30T15:36:55.471Z,20.50
2019-04-30T15:39:41.102Z,20.50
2019-04-30T15:42:21.054Z,20.40
2019-04-30T15:44:59.467Z,20.40
2019-04-30T15:47:38.760Z,20.40
2019-04-30T15:50:19.554Z,20.40
2019-04-30T15:52:58.454Z,20.40
2019-04-30T15:55:35.652Z,20.40
2019-04-30T15:58:23.009Z,20.20
2019-04-30T16:01:02.398Z,20.30
2019-04-30T16:03:42.191Z,20.40
2019-04-30T16:06:19.610Z,20.40
2019-04-30T16:09:00.702Z,20.40
2019-04-30T16:12:03.850Z,20.30
2019-04-30T16:14:43.043Z,20.40
2019-04-30T16:17:24.565Z,20.30
2019-04-30T16:20:03.232Z,20.30
2019-04-30T16:22:40.723Z,20.30
2019-04-30T16:25:19.441Z,20.30
2019-04-30T16:27:57.094Z,20.30
2019-04-30T16:30:36.123Z,20.20
2019-04-30T16:33:16.761Z,20.20
2019-04-30T16:35:54.924Z,20.20
2019-04-30T16:38:34.030Z,20.30
2019-04-30T16:41:11.434Z,20.20
2019-04-30T16:43:49.329Z,20.20
2019-04-30T16:46:26.707Z,20.20
2019-04-30T16:49:04.167Z,20.20
2019-04-30T16:51:41.698Z,20.20
2019-04-30T16:54:20.622Z,20.20
2019-04-30T16:57:04.101Z,20.10
2019-04-30T16:59:44.481Z,20.20
2019-04-30T17:02:23.154Z,20.10
2019-04-30T17:05:13.729Z,20.10
2019-04-30T17:08:09.389Z,20.10
2019-04-30T17:11:19.202Z,20.10
2019-04-30T17:14:01.958Z,20.00
2019-04-30T17:16:44.263Z,20.00
2019-04-30T17:19:21.836Z,20.00
2019-04-30T17:22:01.048Z,20.00
2019-04-30T17:24:39.386Z,20.00
2019-04-30T17:27:21.587Z,20.00
2019-04-30T17:29:55.877Z,20.00
2019-04-30T17:32:35.156Z,20.00
2019-04-30T17:35:15.681Z,19.90
2019-04-30T17:37:53.392Z,19.90
2019-04-30T17:40:32.319Z,19.90
2019-04-30T17:43:12.674Z,19.80
2019-04-30T17:45:50.032Z,19.80
2019-04-30T17:48:29.123Z,19.70
2019-04-30T17:51:09.432Z,19.70
2019-04-30T17:54:10.900Z,19.60
2019-04-30T17:56:48.980Z,19.60
2019-04-30T17:59:26.754Z,19.60
2019-04-30T18:04:39.987Z,21.30
2019-04-30T18:07:19.657Z,19.50
2019-04-30T18:10:02.065Z,19.60
2019-04-30T18:12:41.123Z,19.50
2019-04-30T18:15:23.303Z,19.60
2019-04-30T18:18:23.807Z,19.60
2019-04-30T18:21:31.027Z,19.50
2019-04-30T18:24:29.405Z,19.50
2019-04-30T18:27:16.331Z,19.50
2019-04-30T18:29:53.792Z,19.50
2019-04-30T18:35:04.195Z,19.60
2019-04-30T18:37:41.960Z,19.50
2019-04-30T18:40:19.623Z,19.50
2019-04-30T18:42:59.349Z,19.50
2019-04-30T18:45:39.578Z,19.50
2019-04-30T18:48:22.339Z,19.50
2019-04-30T18:50:59.797Z,19.60
2019-04-30T18:53:42.503Z,19.60
2019-04-30T18:56:24.091Z,19.70
2019-04-30T18:59:01.678Z,19.80
2019-04-30T19:01:40.664Z,19.60
2019-04-30T19:04:21.143Z,19.60
2019-04-30T19:07:01.538Z,19.60
2019-04-30T19:09:56.175Z,19.50
2019-04-30T19:12:59.937Z,19.50
2019-04-30T19:18:42.976Z,19.50
2019-04-30T19:21:21.734Z,19.50
2019-04-30T19:23:59.548Z,19.50
2019-04-30T19:26:38.782Z,19.50
2019-04-30T19:29:17.421Z,19.50
2019-04-30T19:31:56.679Z,19.50
2019-04-30T19:34:34.115Z,19.40
2019-04-30T19:37:14.706Z,19.40
2019-04-30T19:39:52.120Z,19.40
2019-04-30T19:42:29.703Z,19.40
2019-04-30T19:45:10.170Z,19.40
2019-04-30T19:47:45.909Z,19.40
2019-04-30T19:50:27.368Z,19.40
2019-04-30T19:53:05.003Z,19.50
2019-04-30T19:55:43.685Z,19.50
2019-04-30T19:58:29.529Z,19.50
2019-04-30T20:01:00.414Z,19.60
2019-04-30T20:03:43.716Z,19.60
2019-04-30T20:06:21.427Z,19.60
2019-04-30T20:09:00.778Z,19.50
2019-04-30T20:11:39.816Z,19.50
2019-04-30T20:14:19.864Z,19.60
2019-04-30T20:16:59.073Z,19.50
2019-04-30T20:19:38.842Z,19.50
2019-04-30T20:22:16.864Z,19.50
2019-04-30T20:24:56.716Z,19.40
2019-04-30T20:27:35.495Z,19.50
2019-04-30T20:30:13.223Z,19.50
2019-04-30T20:32:51.383Z,19.50
2019-04-30T20:35:28.873Z,19.50
2019-04-30T20:38:33.690Z,19.50
2019-04-30T20:41:13.608Z,19.50
2019-04-30T20:43:51.248Z,19.40
2019-04-30T20:46:34.336Z,19.50
2019-04-30T20:49:10.289Z,19.50
2019-04-30T20:51:55.313Z,19.60
2019-04-30T20:54:29.510Z,19.50
2019-04-30T20:57:08.761Z,19.50
2019-04-30T20:59:48.736Z,19.40
2019-04-30T21:02:28.564Z,19.50
2019-04-30T21:05:05.191Z,19.50
2019-04-30T21:07:42.659Z,19.60
2019-04-30T21:10:20.417Z,19.50
2019-04-30T21:12:57.918Z,19.50
2019-04-30T21:15:36.640Z,19.60
2019-04-30T21:18:16.126Z,19.70
2019-04-30T21:20:53.562Z,19.80
2019-04-30T21:23:30.985Z,19.60
2019-04-30T21:26:11.734Z,19.60
2019-04-30T21:31:39.934Z,19.60
2019-04-30T21:34:39.362Z,19.60
2019-04-30T21:37:19.769Z,19.50
2019-04-30T21:39:58.604Z,19.40
2019-04-30T21:42:37.444Z,19.50
2019-04-30T21:45:15.046Z,19.50
2019-04-30T21:47:56.384Z,19.50
2019-04-30T21:50:35.226Z,19.60
2019-04-30T21:53:15.829Z,19.60
2019-04-30T21:55:53.243Z,20.50
2019-04-30T21:58:31.927Z,19.60
2019-04-30T22:01:26.772Z,19.70
2019-04-30T22:04:06.004Z,19.60
2019-04-30T22:06:43.444Z,19.70
2019-04-30T22:09:21.734Z,19.70
2019-04-30T22:12:00.752Z,19.70
2019-04-30T22:14:38.256Z,19.80
2019-04-30T22:17:15.717Z,19.90
2019-04-30T22:19:53.102Z,19.90
2019-04-30T22:22:30.526Z,19.90
2019-04-30T22:25:10.703Z,19.90
2019-04-30T22:27:54.801Z,20.40
2019-04-30T22:30:33.499Z,20.20
2019-04-30T22:33:10.974Z,20.10
2019-04-30T22:36:02.826Z,20.10
2019-04-30T22:38:48.756Z,20.20
2019-04-30T22:41:29.654Z,20.40
2019-04-30T22:44:06.976Z,19.80
2019-04-30T22:46:44.450Z,20.10
2019-04-30T22:49:23.136Z,20.10
2019-04-30T22:52:06.755Z,20.40
2019-04-30T22:54:44.287Z,20.10
2019-04-30T22:57:23.052Z,20.20
2019-04-30T23:00:00.612Z,20.20
2019-04-30T23:02:53.537Z,20.30
2019-04-30T23:05:31.519Z,20.30
2019-04-30T23:08:09.080Z,20.40
2019-04-30T23:10:47.095Z,20.10
2019-04-30T23:13:24.862Z,20.30
2019-04-30T23:16:02.595Z,20.50
2019-04-30T23:18:40.277Z,20.60
2019-04-30T23:21:21.003Z,20.40
2019-04-30T23:24:00.427Z,20.40
2019-04-30T23:26:37.841Z,20.50
2019-04-30T23:29:18.839Z,20.40
2019-04-30T23:31:57.568Z,20.40
2019-04-30T23:34:35.087Z,20.40
2019-04-30T23:37:13.161Z,20.40
2019-04-30T23:39:50.807Z,20.50
2019-04-30T23:42:30.408Z,20.40
2019-04-30T23:45:09.395Z,20.50
2019-04-30T23:47:47.087Z,20.50
2019-04-30T23:50:26.127Z,20.60
2019-04-30T23:53:03.724Z,20.70
2019-04-30T23:55:41.464Z,20.80
2019-04-30T23:58:18.948Z,20.80
